sensor_id;sensor_type;location;lat;lon;timestamp;P1;durP1;ratioP1;P2;durP2;ratioP2
13432;SDS011;6789;47.678;9.158;2022-10-16T00:04:13;7.90;;;3.17;;
13432;SDS011;6789;47.678;9.158;2022-10-16T00:10:09;4.47;;;2.63;;
13432;SDS011;6789;47.678;9.158;2022-10-16T00:41:23;3.47;;;2.93;;
13432;SDS011;6789;47.678;9.158;2022-10-16T00:47:42;5.22;;;2.90;;
13432;SDS011;6789;47.678;9.158;2022-10-16T00:53:47;5.70;;;3.30;;
13432;SDS011;6789;47.678;9.158;2022-10-16T00:59:07;5.07;;;3.00;;
13432;SDS011;6789;47.678;9.158;2022-10-16T01:05:03;4.55;;;3.03;;
13432;SDS011;6789;47.678;9.158;2022-10-16T01:10:26;5.73;;;3.03;;
13432;SDS011;6789;47.678;9.158;2022-10-16T01:16:31;7.78;;;3.60;;
13432;SDS011;6789;47.678;9.158;2022-10-16T01:22:56;5.60;;;3.10;;
13432;SDS011;6789;47.678;9.158;2022-10-16T01:29:29;7.90;;;3.20;;
13432;SDS011;6789;47.678;9.158;2022-10-16T01:35:27;6.63;;;3.60;;
13432;SDS011;6789;47.678;9.158;2022-10-16T01:45:53;5.70;;;3.20;;
13432;SDS011;6789;47.678;9.158;2022-10-16T01:51:46;4.03;;;3.08;;
13432;SDS011;6789;47.678;9.158;2022-10-16T01:56:45;4.10;;;2.90;;
13432;SDS011;6789;47.678;9.158;2022-10-16T02:01:42;7.13;;;3.50;;
13432;SDS011;6789;47.678;9.158;2022-10-16T02:06:42;4.00;;;3.30;;
13432;SDS011;6789;47.678;9.158;2022-10-16T02:11:34;6.07;;;3.83;;
13432;SDS011;6789;47.678;9.158;2022-10-16T02:16:32;7.37;;;3.73;;
13432;SDS011;6789;47.678;9.158;2022-10-16T02:21:44;5.55;;;3.47;;
13432;SDS011;6789;47.678;9.158;2022-10-16T02:32:47;3.35;;;2.78;;
13432;SDS011;6789;47.678;9.158;2022-10-16T02:38:13;5.43;;;3.08;;
13432;SDS011;6789;47.678;9.158;2022-10-16T02:43:08;2.80;;;2.53;;
13432;SDS011;6789;47.678;9.158;2022-10-16T02:48:49;6.27;;;2.90;;
13432;SDS011;6789;47.678;9.158;2022-10-16T02:53:58;4.00;;;2.73;;
13432;SDS011;6789;47.678;9.158;2022-10-16T02:59:16;4.47;;;2.97;;
13432;SDS011;6789;47.678;9.158;2022-10-16T03:05:28;6.90;;;2.90;;
13432;SDS011;6789;47.678;9.158;2022-10-16T03:10:46;8.45;;;3.10;;
13432;SDS011;6789;47.678;9.158;2022-10-16T03:15:54;7.03;;;3.60;;
13432;SDS011;6789;47.678;9.158;2022-10-16T03:21:22;7.37;;;4.07;;
13432;SDS011;6789;47.678;9.158;2022-10-16T03:26:29;7.68;;;4.00;;
13432;SDS011;6789;47.678;9.158;2022-10-16T03:31:55;5.07;;;3.80;;
13432;SDS011;6789;47.678;9.158;2022-10-16T03:38:08;7.20;;;4.60;;
13432;SDS011;6789;47.678;9.158;2022-10-16T03:44:46;7.07;;;4.20;;
13432;SDS011;6789;47.678;9.158;2022-10-16T03:49:37;10.98;;;4.50;;
13432;SDS011;6789;47.678;9.158;2022-10-16T03:54:29;5.50;;;3.92;;
13432;SDS011;6789;47.678;9.158;2022-10-16T03:59:21;6.13;;;4.30;;
13432;SDS011;6789;47.678;9.158;2022-10-16T04:04:12;11.52;;;4.40;;
13432;SDS011;6789;47.678;9.158;2022-10-16T04:09:27;7.43;;;4.33;;
13432;SDS011;6789;47.678;9.158;2022-10-16T04:14:33;7.53;;;4.17;;
13432;SDS011;6789;47.678;9.158;2022-10-16T04:19:54;10.10;;;5.17;;
13432;SDS011;6789;47.678;9.158;2022-10-16T04:25:20;8.37;;;5.40;;
13432;SDS011;6789;47.678;9.158;2022-10-16T04:36:47;7.32;;;4.97;;
13432;SDS011;6789;47.678;9.158;2022-10-16T04:41:56;10.55;;;5.63;;
13432;SDS011;6789;47.678;9.158;2022-10-16T04:47:04;9.85;;;5.78;;
13432;SDS011;6789;47.678;9.158;2022-10-16T04:52:14;11.17;;;5.53;;
13432;SDS011;6789;47.678;9.158;2022-10-16T04:57:20;9.23;;;5.37;;
13432;SDS011;6789;47.678;9.158;2022-10-16T05:02:26;9.90;;;5.97;;
13432;SDS011;6789;47.678;9.158;2022-10-16T05:07:43;11.03;;;5.93;;
13432;SDS011;6789;47.678;9.158;2022-10-16T05:13:16;17.23;;;5.70;;
13432;SDS011;6789;47.678;9.158;2022-10-16T05:18:24;7.37;;;5.50;;
13432;SDS011;6789;47.678;9.158;2022-10-16T05:23:42;9.00;;;5.95;;
13432;SDS011;6789;47.678;9.158;2022-10-16T05:28:50;13.00;;;6.28;;
13432;SDS011;6789;47.678;9.158;2022-10-16T05:34:00;10.73;;;6.53;;
13432;SDS011;6789;47.678;9.158;2022-10-16T05:39:32;17.40;;;5.95;;
13432;SDS011;6789;47.678;9.158;2022-10-16T05:44:40;10.10;;;5.93;;
13432;SDS011;6789;47.678;9.158;2022-10-16T05:49:59;10.60;;;6.20;;
13432;SDS011;6789;47.678;9.158;2022-10-16T05:55:26;8.75;;;5.93;;
13432;SDS011;6789;47.678;9.158;2022-10-16T06:00:32;11.52;;;5.72;;
13432;SDS011;6789;47.678;9.158;2022-10-16T06:06:09;10.23;;;4.22;;
13432;SDS011;6789;47.678;9.158;2022-10-16T06:11:31;13.13;;;4.60;;
13432;SDS011;6789;47.678;9.158;2022-10-16T06:16:48;9.45;;;4.18;;
13432;SDS011;6789;47.678;9.158;2022-10-16T06:22:21;12.27;;;4.70;;
13432;SDS011;6789;47.678;9.158;2022-10-16T06:27:39;15.38;;;4.53;;
13432;SDS011;6789;47.678;9.158;2022-10-16T06:32:48;6.32;;;4.65;;
13432;SDS011;6789;47.678;9.158;2022-10-16T06:37:59;6.53;;;4.65;;
13432;SDS011;6789;47.678;9.158;2022-10-16T06:43:06;17.30;;;6.17;;
13432;SDS011;6789;47.678;9.158;2022-10-16T06:48:19;7.90;;;5.78;;
13432;SDS011;6789;47.678;9.158;2022-10-16T06:53:31;9.25;;;5.57;;
13432;SDS011;6789;47.678;9.158;2022-10-16T06:59:05;9.77;;;5.50;;
13432;SDS011;6789;47.678;9.158;2022-10-16T07:04:40;6.70;;;5.15;;
13432;SDS011;6789;47.678;9.158;2022-10-16T07:09:47;8.90;;;5.32;;
13432;SDS011;6789;47.678;9.158;2022-10-16T07:14:53;7.03;;;4.60;;
13432;SDS011;6789;47.678;9.158;2022-10-16T07:20:12;6.15;;;4.78;;
13432;SDS011;6789;47.678;9.158;2022-10-16T07:25:19;4.80;;;4.30;;
13432;SDS011;6789;47.678;9.158;2022-10-16T07:30:35;7.00;;;4.20;;
13432;SDS011;6789;47.678;9.158;2022-10-16T07:35:48;4.72;;;4.07;;
13432;SDS011;6789;47.678;9.158;2022-10-16T07:41:00;8.02;;;4.93;;
13432;SDS011;6789;47.678;9.158;2022-10-16T07:46:11;6.85;;;4.80;;
13432;SDS011;6789;47.678;9.158;2022-10-16T07:51:21;6.25;;;5.03;;
13432;SDS011;6789;47.678;9.158;2022-10-16T07:56:30;5.05;;;4.22;;
13432;SDS011;6789;47.678;9.158;2022-10-16T08:01:37;5.97;;;4.13;;
13432;SDS011;6789;47.678;9.158;2022-10-16T08:07:04;6.30;;;4.18;;
13432;SDS011;6789;47.678;9.158;2022-10-16T08:12:15;5.22;;;4.40;;
13432;SDS011;6789;47.678;9.158;2022-10-16T08:17:21;5.88;;;4.47;;
13432;SDS011;6789;47.678;9.158;2022-10-16T08:22:47;7.00;;;4.43;;
13432;SDS011;6789;47.678;9.158;2022-10-16T08:27:57;3.80;;;3.38;;
13432;SDS011;6789;47.678;9.158;2022-10-16T08:39:34;5.45;;;3.28;;
13432;SDS011;6789;47.678;9.158;2022-10-16T08:44:49;4.15;;;3.35;;
13432;SDS011;6789;47.678;9.158;2022-10-16T08:50:24;5.47;;;3.80;;
13432;SDS011;6789;47.678;9.158;2022-10-16T08:55:39;4.10;;;3.60;;
13432;SDS011;6789;47.678;9.158;2022-10-16T09:00:58;4.90;;;4.07;;
13432;SDS011;6789;47.678;9.158;2022-10-16T09:17:18;7.78;;;4.75;;
13432;SDS011;6789;47.678;9.158;2022-10-16T09:22:57;5.05;;;4.15;;
13432;SDS011;6789;47.678;9.158;2022-10-16T09:28:37;5.47;;;4.60;;
13432;SDS011;6789;47.678;9.158;2022-10-16T09:34:22;5.68;;;4.07;;
13432;SDS011;6789;47.678;9.158;2022-10-16T09:39:50;5.45;;;4.20;;
13432;SDS011;6789;47.678;9.158;2022-10-16T09:44:58;6.38;;;4.43;;
13432;SDS011;6789;47.678;9.158;2022-10-16T09:50:26;7.32;;;3.95;;
13432;SDS011;6789;47.678;9.158;2022-10-16T09:55:33;5.60;;;3.85;;
13432;SDS011;6789;47.678;9.158;2022-10-16T10:00:40;3.92;;;2.63;;
13432;SDS011;6789;47.678;9.158;2022-10-16T10:05:57;4.78;;;3.25;;
13432;SDS011;6789;47.678;9.158;2022-10-16T10:11:13;3.85;;;3.00;;
13432;SDS011;6789;47.678;9.158;2022-10-16T10:16:26;5.75;;;2.90;;
13432;SDS011;6789;47.678;9.158;2022-10-16T10:21:34;7.32;;;2.97;;
13432;SDS011;6789;47.678;9.158;2022-10-16T10:26:54;3.90;;;2.58;;
13432;SDS011;6789;47.678;9.158;2022-10-16T10:38:30;3.15;;;2.47;;
13432;SDS011;6789;47.678;9.158;2022-10-16T11:01:54;3.47;;;2.67;;
13432;SDS011;6789;47.678;9.158;2022-10-16T11:13:04;4.78;;;1.88;;
13432;SDS011;6789;47.678;9.158;2022-10-16T11:19:03;3.55;;;1.52;;
13432;SDS011;6789;47.678;9.158;2022-10-16T11:24:49;1.27;;;1.00;;
13432;SDS011;6789;47.678;9.158;2022-10-16T11:30:40;3.08;;;1.00;;
13432;SDS011;6789;47.678;9.158;2022-10-16T11:52:38;3.80;;;0.85;;
13432;SDS011;6789;47.678;9.158;2022-10-16T11:58:01;1.10;;;0.88;;
13432;SDS011;6789;47.678;9.158;2022-10-16T12:09:37;1.00;;;0.80;;
13432;SDS011;6789;47.678;9.158;2022-10-16T12:14:47;4.30;;;0.85;;
13432;SDS011;6789;47.678;9.158;2022-10-16T12:20:30;4.68;;;0.88;;
13432;SDS011;6789;47.678;9.158;2022-10-16T12:25:41;1.25;;;0.73;;
13432;SDS011;6789;47.678;9.158;2022-10-16T12:31:04;0.68;;;0.68;;
13432;SDS011;6789;47.678;9.158;2022-10-16T12:36:32;2.08;;;0.82;;
13432;SDS011;6789;47.678;9.158;2022-10-16T12:41:40;0.88;;;0.82;;
13432;SDS011;6789;47.678;9.158;2022-10-16T12:46:47;1.67;;;0.80;;
13432;SDS011;6789;47.678;9.158;2022-10-16T12:51:58;1.05;;;0.90;;
13432;SDS011;6789;47.678;9.158;2022-10-16T13:14:00;1.00;;;1.00;;
13432;SDS011;6789;47.678;9.158;2022-10-16T13:26:04;1.63;;;1.20;;
13432;SDS011;6789;47.678;9.158;2022-10-16T13:31:22;4.32;;;1.30;;
13432;SDS011;6789;47.678;9.158;2022-10-16T13:36:35;2.70;;;1.27;;
13432;SDS011;6789;47.678;9.158;2022-10-16T13:42:01;2.28;;;1.23;;
13432;SDS011;6789;47.678;9.158;2022-10-16T13:47:48;1.20;;;1.10;;
13432;SDS011;6789;47.678;9.158;2022-10-16T13:53:05;2.13;;;1.35;;
13432;SDS011;6789;47.678;9.158;2022-10-16T13:58:22;2.22;;;1.08;;
13432;SDS011;6789;47.678;9.158;2022-10-16T14:04:07;2.03;;;1.38;;
13432;SDS011;6789;47.678;9.158;2022-10-16T14:09:31;1.90;;;1.45;;
13432;SDS011;6789;47.678;9.158;2022-10-16T14:14:55;1.80;;;1.30;;
13432;SDS011;6789;47.678;9.158;2022-10-16T14:20:12;1.73;;;1.40;;
13432;SDS011;6789;47.678;9.158;2022-10-16T14:25:46;1.50;;;1.40;;
13432;SDS011;6789;47.678;9.158;2022-10-16T14:36:25;3.45;;;1.55;;
13432;SDS011;6789;47.678;9.158;2022-10-16T14:41:40;2.97;;;1.83;;
13432;SDS011;6789;47.678;9.158;2022-10-16T14:47:09;2.65;;;1.50;;
13432;SDS011;6789;47.678;9.158;2022-10-16T14:52:19;4.35;;;1.75;;
13432;SDS011;6789;47.678;9.158;2022-10-16T14:57:27;1.60;;;1.50;;
13432;SDS011;6789;47.678;9.158;2022-10-16T15:02:47;2.15;;;1.52;;
13432;SDS011;6789;47.678;9.158;2022-10-16T15:07:56;2.45;;;1.40;;
13432;SDS011;6789;47.678;9.158;2022-10-16T15:13:13;1.75;;;1.40;;
13432;SDS011;6789;47.678;9.158;2022-10-16T15:18:29;2.42;;;1.80;;
13432;SDS011;6789;47.678;9.158;2022-10-16T15:23:42;1.75;;;1.40;;
13432;SDS011;6789;47.678;9.158;2022-10-16T15:28:48;2.47;;;1.20;;
13432;SDS011;6789;47.678;9.158;2022-10-16T15:33:55;1.38;;;1.23;;
13432;SDS011;6789;47.678;9.158;2022-10-16T15:39:16;3.00;;;1.48;;
13432;SDS011;6789;47.678;9.158;2022-10-16T15:44:27;6.75;;;1.33;;
13432;SDS011;6789;47.678;9.158;2022-10-16T15:49:36;2.88;;;1.10;;
13432;SDS011;6789;47.678;9.158;2022-10-16T15:54:43;1.65;;;1.50;;
13432;SDS011;6789;47.678;9.158;2022-10-16T15:59:53;2.30;;;1.67;;
13432;SDS011;6789;47.678;9.158;2022-10-16T16:04:59;1.75;;;1.40;;
13432;SDS011;6789;47.678;9.158;2022-10-16T16:10:08;1.83;;;1.45;;
13432;SDS011;6789;47.678;9.158;2022-10-16T16:15:23;2.17;;;1.40;;
13432;SDS011;6789;47.678;9.158;2022-10-16T16:26:13;3.15;;;1.55;;
13432;SDS011;6789;47.678;9.158;2022-10-16T16:31:31;5.82;;;1.65;;
13432;SDS011;6789;47.678;9.158;2022-10-16T16:37:03;2.67;;;1.92;;
13432;SDS011;6789;47.678;9.158;2022-10-16T16:42:10;1.67;;;1.45;;
13432;SDS011;6789;47.678;9.158;2022-10-16T16:47:18;2.70;;;1.60;;
13432;SDS011;6789;47.678;9.158;2022-10-16T16:52:24;2.17;;;1.70;;
13432;SDS011;6789;47.678;9.158;2022-10-16T16:57:34;3.70;;;1.90;;
13432;SDS011;6789;47.678;9.158;2022-10-16T17:02:51;3.97;;;2.40;;
13432;SDS011;6789;47.678;9.158;2022-10-16T17:08:08;3.88;;;2.47;;
13432;SDS011;6789;47.678;9.158;2022-10-16T17:13:18;9.38;;;3.50;;
13432;SDS011;6789;47.678;9.158;2022-10-16T17:18:39;5.38;;;3.00;;
13432;SDS011;6789;47.678;9.158;2022-10-16T17:23:50;4.18;;;3.10;;
13432;SDS011;6789;47.678;9.158;2022-10-16T17:28:59;5.85;;;2.80;;
13432;SDS011;6789;47.678;9.158;2022-10-16T17:34:07;5.95;;;3.00;;
13432;SDS011;6789;47.678;9.158;2022-10-16T17:39:16;4.10;;;2.90;;
13432;SDS011;6789;47.678;9.158;2022-10-16T17:50:26;5.53;;;2.42;;
13432;SDS011;6789;47.678;9.158;2022-10-16T17:55:40;4.90;;;2.53;;
13432;SDS011;6789;47.678;9.158;2022-10-16T18:00:47;7.55;;;2.80;;
13432;SDS011;6789;47.678;9.158;2022-10-16T18:05:56;3.80;;;2.35;;
13432;SDS011;6789;47.678;9.158;2022-10-16T18:11:09;3.58;;;2.40;;
13432;SDS011;6789;47.678;9.158;2022-10-16T18:16:19;12.13;;;2.63;;
13432;SDS011;6789;47.678;9.158;2022-10-16T18:21:30;5.22;;;2.63;;
13432;SDS011;6789;47.678;9.158;2022-10-16T18:26:38;3.95;;;3.17;;
13432;SDS011;6789;47.678;9.158;2022-10-16T18:31:48;5.43;;;3.00;;
13432;SDS011;6789;47.678;9.158;2022-10-16T18:36:56;3.88;;;2.67;;
13432;SDS011;6789;47.678;9.158;2022-10-16T18:42:05;9.68;;;3.50;;
13432;SDS011;6789;47.678;9.158;2022-10-16T18:47:15;4.95;;;2.70;;
13432;SDS011;6789;47.678;9.158;2022-10-16T18:58:27;4.13;;;3.03;;
13432;SDS011;6789;47.678;9.158;2022-10-16T19:03:47;7.57;;;3.28;;
13432;SDS011;6789;47.678;9.158;2022-10-16T19:08:58;4.60;;;2.70;;
13432;SDS011;6789;47.678;9.158;2022-10-16T19:14:05;5.45;;;2.75;;
13432;SDS011;6789;47.678;9.158;2022-10-16T19:19:39;6.55;;;4.05;;
13432;SDS011;6789;47.678;9.158;2022-10-16T19:24:45;4.85;;;3.10;;
13432;SDS011;6789;47.678;9.158;2022-10-16T19:29:55;9.80;;;4.90;;
13432;SDS011;6789;47.678;9.158;2022-10-16T19:35:01;8.23;;;4.40;;
13432;SDS011;6789;47.678;9.158;2022-10-16T19:40:31;7.22;;;4.30;;
13432;SDS011;6789;47.678;9.158;2022-10-16T19:45:37;8.07;;;4.30;;
13432;SDS011;6789;47.678;9.158;2022-10-16T19:56:44;7.15;;;5.05;;
13432;SDS011;6789;47.678;9.158;2022-10-16T20:02:23;6.57;;;5.18;;
13432;SDS011;6789;47.678;9.158;2022-10-16T20:07:51;8.30;;;4.60;;
13432;SDS011;6789;47.678;9.158;2022-10-16T20:12:59;7.03;;;4.00;;
13432;SDS011;6789;47.678;9.158;2022-10-16T20:18:09;5.73;;;3.93;;
13432;SDS011;6789;47.678;9.158;2022-10-16T20:23:38;6.18;;;3.50;;
13432;SDS011;6789;47.678;9.158;2022-10-16T20:29:08;6.60;;;3.60;;
13432;SDS011;6789;47.678;9.158;2022-10-16T20:34:15;6.57;;;3.53;;
13432;SDS011;6789;47.678;9.158;2022-10-16T20:39:21;7.27;;;3.17;;
13432;SDS011;6789;47.678;9.158;2022-10-16T20:44:46;10.10;;;4.77;;
13432;SDS011;6789;47.678;9.158;2022-10-16T20:55:35;4.65;;;3.25;;
13432;SDS011;6789;47.678;9.158;2022-10-16T21:00:43;7.22;;;4.05;;
13432;SDS011;6789;47.678;9.158;2022-10-16T21:05:50;4.45;;;3.40;;
13432;SDS011;6789;47.678;9.158;2022-10-16T21:10:51;7.47;;;3.15;;
13432;SDS011;6789;47.678;9.158;2022-10-16T21:15:58;7.37;;;3.10;;
13432;SDS011;6789;47.678;9.158;2022-10-16T21:21:09;8.10;;;3.47;;
13432;SDS011;6789;47.678;9.158;2022-10-16T21:26:53;7.63;;;3.40;;
13432;SDS011;6789;47.678;9.158;2022-10-16T21:31:59;5.90;;;3.20;;
13432;SDS011;6789;47.678;9.158;2022-10-16T21:37:16;3.87;;;2.90;;
13432;SDS011;6789;47.678;9.158;2022-10-16T21:42:35;4.53;;;2.80;;
13432;SDS011;6789;47.678;9.158;2022-10-16T21:47:41;5.17;;;3.07;;
13432;SDS011;6789;47.678;9.158;2022-10-16T21:58:18;3.60;;;2.87;;
13432;SDS011;6789;47.678;9.158;2022-10-16T22:03:25;5.37;;;3.33;;
13432;SDS011;6789;47.678;9.158;2022-10-16T22:08:31;4.43;;;3.13;;
13432;SDS011;6789;47.678;9.158;2022-10-16T22:13:40;4.03;;;2.93;;
13432;SDS011;6789;47.678;9.158;2022-10-16T22:18:47;4.30;;;2.73;;
13432;SDS011;6789;47.678;9.158;2022-10-16T22:23:59;6.90;;;3.20;;
13432;SDS011;6789;47.678;9.158;2022-10-16T22:29:06;7.43;;;3.23;;
13432;SDS011;6789;47.678;9.158;2022-10-16T22:34:12;5.00;;;3.07;;
13432;SDS011;6789;47.678;9.158;2022-10-16T22:39:19;5.07;;;2.90;;
13432;SDS011;6789;47.678;9.158;2022-10-16T22:44:26;6.23;;;3.20;;
13432;SDS011;6789;47.678;9.158;2022-10-16T22:49:32;7.00;;;3.70;;
13432;SDS011;6789;47.678;9.158;2022-10-16T22:54:38;4.77;;;2.90;;
13432;SDS011;6789;47.678;9.158;2022-10-16T22:59:45;5.87;;;3.10;;
13432;SDS011;6789;47.678;9.158;2022-10-16T23:04:51;6.10;;;3.07;;
13432;SDS011;6789;47.678;9.158;2022-10-16T23:09:57;8.03;;;3.50;;
13432;SDS011;6789;47.678;9.158;2022-10-16T23:15:03;5.57;;;2.80;;
13432;SDS011;6789;47.678;9.158;2022-10-16T23:20:29;5.53;;;2.80;;
13432;SDS011;6789;47.678;9.158;2022-10-16T23:26:14;6.20;;;2.67;;
13432;SDS011;6789;47.678;9.158;2022-10-16T23:31:52;5.47;;;2.83;;
13432;SDS011;6789;47.678;9.158;2022-10-16T23:36:59;4.43;;;2.53;;
13432;SDS011;6789;47.678;9.158;2022-10-16T23:43:19;6.67;;;2.80;;
13432;SDS011;6789;47.678;9.158;2022-10-16T23:48:38;4.03;;;2.90;;
13432;SDS011;6789;47.678;9.158;2022-10-16T23:54:10;9.17;;;2.87;;
13432;SDS011;6789;47.678;9.158;2022-10-16T23:59:18;3.90;;;2.77;;
